sensor_id;sensor_type;location;lat;lon;timestamp;P1;P4;P2;P0;N10;N4;N25;N1;N05;TS
67098;SPS30;54288;53.046;5.668;2024-03-23T00:54:27;4.36;4.21;3.50;2.48;19.92;19.89;19.71;18.77;15.35;0.74
67098;SPS30;54288;53.046;5.668;2024-03-23T01:04:55;4.57;4.41;3.61;2.47;19.90;19.87;19.66;18.61;15.07;0.77
67098;SPS30;54288;53.046;5.668;2024-03-23T01:07:21;5.02;4.84;3.95;2.70;21.71;21.67;21.44;20.27;16.39;0.77
67098;SPS30;54288;53.046;5.668;2024-03-23T01:09:52;5.24;5.03;4.02;2.62;21.11;21.08;20.81;19.50;15.51;0.79
67098;SPS30;54288;53.046;5.668;2024-03-23T01:12:19;4.75;4.56;3.60;2.29;18.52;18.48;18.24;17.00;13.42;0.79
67098;SPS30;54288;53.046;5.668;2024-03-23T01:25:51;4.95;4.74;3.67;2.22;17.92;17.88;17.60;16.22;12.55;0.84
67098;SPS30;54288;53.046;5.668;2024-03-23T01:31:06;5.31;5.07;3.89;2.29;18.53;18.48;18.18;16.65;12.74;0.85
67098;SPS30;54288;53.046;5.668;2024-03-23T01:33:35;4.97;4.75;3.61;2.08;16.85;16.80;16.51;15.05;11.41;0.85
67098;SPS30;54288;53.046;5.668;2024-03-23T01:36:08;4.95;4.73;3.64;2.16;17.44;17.40;17.11;15.70;12.05;0.84
67098;SPS30;54288;53.046;5.668;2024-03-23T01:38:35;5.03;4.81;3.71;2.21;17.90;17.86;17.57;16.15;12.43;0.85
67098;SPS30;54288;53.046;5.668;2024-03-23T01:41:04;4.13;3.95;3.05;1.83;14.80;14.76;14.53;13.37;10.31;0.86
67098;SPS30;54288;53.046;5.668;2024-03-23T01:43:32;4.79;4.58;3.50;2.05;16.57;16.53;16.26;14.87;11.35;0.87
67098;SPS30;54288;53.046;5.668;2024-03-23T01:46:04;4.63;4.43;3.39;1.99;16.10;16.06;15.80;14.46;11.05;0.86
67098;SPS30;54288;53.046;5.668;2024-03-23T01:48:32;4.82;4.61;3.54;2.11;17.09;17.05;16.78;15.41;11.85;0.86
67098;SPS30;54288;53.046;5.668;2024-03-23T01:53:34;4.92;4.69;3.53;1.99;16.14;16.09;15.80;14.31;10.74;0.91
67098;SPS30;54288;53.046;5.668;2024-03-23T01:58:45;4.23;4.03;3.05;1.73;14.01;13.98;13.72;12.46;9.38;0.89
67098;SPS30;54288;53.046;5.668;2024-03-23T02:01:13;4.28;4.09;3.13;1.84;14.91;14.87;14.63;13.39;10.24;0.87
67098;SPS30;54288;53.046;5.668;2024-03-23T02:03:42;4.78;4.57;3.50;2.05;16.59;16.55;16.27;14.89;11.37;0.87
67098;SPS30;54288;53.046;5.668;2024-03-23T02:06:53;4.67;4.46;3.41;2.00;16.18;16.14;15.87;14.52;11.09;0.86
67098;SPS30;54288;53.046;5.668;2024-03-23T02:12:32;4.77;4.55;3.43;1.94;15.68;15.64;15.36;13.92;10.45;0.87
67098;SPS30;54288;53.046;5.668;2024-03-23T02:14:58;5.36;5.11;3.83;2.12;17.21;17.17;16.84;15.20;11.32;0.90
67098;SPS30;54288;53.046;5.668;2024-03-23T02:17:27;5.02;4.77;3.56;1.94;15.75;15.71;15.40;13.84;10.23;0.91
67098;SPS30;54288;53.046;5.668;2024-03-23T02:19:57;4.99;4.75;3.57;2.00;16.19;16.15;15.85;14.33;10.71;0.89
67098;SPS30;54288;53.046;5.668;2024-03-23T02:25:08;4.83;4.61;3.51;2.03;16.40;16.36;16.08;14.66;11.13;0.87
67098;SPS30;54288;53.046;5.668;2024-03-23T02:27:39;4.45;4.24;3.22;1.85;14.95;14.91;14.65;13.33;10.09;0.87
67098;SPS30;54288;53.046;5.668;2024-03-23T02:32:52;4.55;4.34;3.29;1.89;15.28;15.24;14.98;13.63;10.30;0.88
67098;SPS30;54288;53.046;5.668;2024-03-23T02:35:20;5.05;4.82;3.65;2.09;16.93;16.89;16.59;15.09;11.41;0.88
67098;SPS30;54288;53.046;5.668;2024-03-23T02:37:48;4.55;4.34;3.32;1.95;15.79;15.75;15.49;14.17;10.83;0.85
67098;SPS30;54288;53.046;5.668;2024-03-23T02:40:25;4.11;3.94;3.07;1.89;15.29;15.26;15.04;13.92;10.85;0.83
67098;SPS30;54288;53.046;5.668;2024-03-23T02:43:00;4.43;4.24;3.32;2.06;16.63;16.59;16.35;15.16;11.84;0.82
67098;SPS30;54288;53.046;5.668;2024-03-23T02:45:29;4.11;3.93;3.07;1.89;15.29;15.26;15.04;13.92;10.86;0.83
67098;SPS30;54288;53.046;5.668;2024-03-23T02:47:58;4.57;4.36;3.35;1.98;16.00;15.96;15.70;14.39;11.03;0.85
67098;SPS30;54288;53.046;5.668;2024-03-23T02:50:24;4.74;4.52;3.46;2.02;16.37;16.33;16.06;14.69;11.21;0.85
67098;SPS30;54288;53.046;5.668;2024-03-23T02:53:02;4.16;3.97;3.03;1.77;14.35;14.31;14.07;12.86;9.81;0.84
67098;SPS30;54288;53.046;5.668;2024-03-23T02:55:30;4.80;4.58;3.46;1.97;15.98;15.94;15.66;14.23;10.73;0.85
67098;SPS30;54288;53.046;5.668;2024-03-23T03:00:45;4.92;4.69;3.57;2.06;16.68;16.64;16.35;14.90;11.30;0.86
67098;SPS30;54288;53.046;5.668;2024-03-23T03:08:51;4.48;4.28;3.30;1.98;16.01;15.98;15.73;14.47;11.16;0.84
67098;SPS30;54288;53.046;5.668;2024-03-23T03:19:24;5.12;4.87;3.62;1.96;15.88;15.84;15.52;13.91;10.23;0.91
67098;SPS30;54288;53.046;5.668;2024-03-23T03:21:53;4.72;4.49;3.37;1.87;15.20;15.15;14.87;13.43;10.01;0.90
67098;SPS30;54288;53.046;5.668;2024-03-23T03:24:29;4.49;4.28;3.24;1.85;15.00;14.97;14.70;13.37;10.09;0.88
67098;SPS30;54288;53.046;5.668;2024-03-23T03:26:58;4.59;4.38;3.32;1.91;15.44;15.40;15.13;13.77;10.42;0.88
67098;SPS30;54288;53.046;5.668;2024-03-23T03:29:27;4.64;4.42;3.33;1.87;15.19;15.15;14.87;13.48;10.11;0.88
67098;SPS30;54288;53.046;5.668;2024-03-23T03:40:12;5.16;4.91;3.63;1.93;15.68;15.63;15.30;13.66;9.97;0.92
67098;SPS30;54288;53.046;5.668;2024-03-23T03:45:13;5.59;5.30;3.86;1.96;15.95;15.90;15.53;13.68;9.73;0.94
67098;SPS30;54288;53.046;5.668;2024-03-23T03:47:44;5.54;5.25;3.81;1.92;15.60;15.54;15.17;13.34;9.43;0.93
67098;SPS30;54288;53.046;5.668;2024-03-23T03:50:10;5.39;5.12;3.74;1.93;15.67;15.62;15.26;13.50;9.68;0.92
67098;SPS30;54288;53.046;5.668;2024-03-23T03:52:40;5.17;4.91;3.60;1.89;15.34;15.29;14.96;13.29;9.61;0.91
67098;SPS30;54288;53.046;5.668;2024-03-23T03:55:12;4.89;4.64;3.40;1.78;14.43;14.39;14.07;12.49;9.01;0.92
67098;SPS30;54288;53.046;5.668;2024-03-23T04:00:24;5.91;5.61;4.12;2.16;17.53;17.47;17.09;15.19;10.98;0.91
67098;SPS30;54288;53.046;5.668;2024-03-23T04:02:50;4.96;4.72;3.48;1.85;15.06;15.02;14.70;13.13;9.57;0.90
67098;SPS30;54288;53.046;5.668;2024-03-23T04:05:18;5.08;4.83;3.60;1.96;15.91;15.87;15.55;13.97;10.31;0.90
67098;SPS30;54288;53.046;5.668;2024-03-23T04:07:58;4.85;4.61;3.41;1.82;14.81;14.77;14.46;12.93;9.45;0.90
67098;SPS30;54288;53.046;5.668;2024-03-23T04:10:27;5.18;4.92;3.64;1.94;15.77;15.72;15.39;13.75;10.04;0.91
67098;SPS30;54288;53.046;5.668;2024-03-23T04:13:00;4.42;4.21;3.15;1.75;14.17;14.13;13.86;12.51;9.32;0.87
67098;SPS30;54288;53.046;5.668;2024-03-23T04:18:10;4.71;4.48;3.34;1.82;14.79;14.75;14.46;12.99;9.60;0.89
67098;SPS30;54288;53.046;5.668;2024-03-23T04:20:40;5.16;4.91;3.64;1.97;15.97;15.92;15.60;13.98;10.28;0.91
67098;SPS30;54288;53.046;5.668;2024-03-23T04:23:08;4.28;4.07;3.05;1.69;13.69;13.66;13.39;12.08;8.99;0.89
67098;SPS30;54288;53.046;5.668;2024-03-23T04:25:37;4.28;4.08;3.07;1.72;13.91;13.87;13.61;12.31;9.21;0.88
67098;SPS30;54288;53.046;5.668;2024-03-23T04:28:06;4.27;4.07;3.08;1.76;14.24;14.21;13.95;12.68;9.57;0.86
67098;SPS30;54288;53.046;5.668;2024-03-23T04:30:34;4.18;3.99;3.04;1.76;14.26;14.23;13.99;12.76;9.70;0.85
67098;SPS30;54288;53.046;5.668;2024-03-23T04:33:03;4.40;4.20;3.18;1.82;14.73;14.69;14.43;13.12;9.91;0.86
67098;SPS30;54288;53.046;5.668;2024-03-23T04:35:34;4.44;4.24;3.21;1.83;14.86;14.82;14.56;13.24;10.00;0.87
67098;SPS30;54288;53.046;5.668;2024-03-23T04:38:03;4.38;4.18;3.18;1.83;14.84;14.80;14.55;13.26;10.05;0.87
67098;SPS30;54288;53.046;5.668;2024-03-23T04:40:35;4.42;4.21;3.18;1.80;14.62;14.58;14.32;13.00;9.78;0.88
67098;SPS30;54288;53.046;5.668;2024-03-23T04:43:10;4.15;3.96;3.00;1.71;13.84;13.80;13.55;12.32;9.29;0.87
67098;SPS30;54288;53.046;5.668;2024-03-23T04:45:40;3.89;3.72;2.84;1.66;13.44;13.40;13.18;12.05;9.19;0.86
67098;SPS30;54288;53.046;5.668;2024-03-23T04:48:20;4.01;3.83;2.94;1.74;14.07;14.04;13.81;12.66;9.71;0.86
67098;SPS30;54288;53.046;5.668;2024-03-23T04:51:07;3.85;3.69;2.88;1.77;14.33;14.30;14.09;13.05;10.17;0.83
67098;SPS30;54288;53.046;5.668;2024-03-23T04:53:36;3.50;3.36;2.65;1.68;13.60;13.57;13.39;12.48;9.84;0.81
67098;SPS30;54288;53.046;5.668;2024-03-23T04:56:10;3.55;3.41;2.69;1.71;13.84;13.81;13.63;12.70;10.02;0.81
67098;SPS30;54288;53.046;5.668;2024-03-23T04:58:45;3.64;3.49;2.75;1.73;13.94;13.91;13.71;12.75;10.01;0.82
67098;SPS30;54288;53.046;5.668;2024-03-23T05:01:16;3.57;3.42;2.67;1.66;13.37;13.34;13.15;12.19;9.52;0.82
67098;SPS30;54288;53.046;5.668;2024-03-23T05:03:44;3.93;3.76;2.92;1.78;14.38;14.35;14.14;13.05;10.13;0.83
67098;SPS30;54288;53.046;5.668;2024-03-23T05:06:13;3.87;3.71;2.90;1.78;14.41;14.38;14.17;13.12;10.23;0.82
67098;SPS30;54288;53.046;5.668;2024-03-23T05:08:43;3.70;3.54;2.77;1.72;13.93;13.90;13.70;12.71;9.94;0.83
67098;SPS30;54288;53.046;5.668;2024-03-23T05:11:08;4.06;3.89;3.05;1.90;15.36;15.33;15.11;14.03;10.99;0.83
67098;SPS30;54288;53.046;5.668;2024-03-23T05:13:35;3.73;3.57;2.81;1.77;14.32;14.29;14.09;13.11;10.31;0.81
67098;SPS30;54288;53.046;5.668;2024-03-23T05:16:11;4.02;3.86;3.07;1.97;15.93;15.90;15.69;14.66;11.62;0.80
67098;SPS30;54288;53.046;5.668;2024-03-23T05:18:45;4.13;3.97;3.17;2.05;16.57;16.54;16.33;15.29;12.15;0.80
67098;SPS30;54288;53.046;5.668;2024-03-23T05:21:22;3.85;3.71;2.98;1.97;15.89;15.87;15.68;14.73;11.79;0.79
67098;SPS30;54288;53.046;5.668;2024-03-23T05:24:09;3.63;3.50;2.85;1.94;15.65;15.62;15.45;14.61;11.80;0.76
67098;SPS30;54288;53.046;5.668;2024-03-23T05:26:39;3.83;3.70;3.04;2.10;16.89;16.86;16.69;15.82;12.84;0.73
67098;SPS30;54288;53.046;5.668;2024-03-23T05:29:08;3.73;3.60;2.96;2.04;16.40;16.38;16.21;15.36;12.46;0.75
67098;SPS30;54288;53.046;5.668;2024-03-23T05:31:49;4.20;4.05;3.31;2.26;18.23;18.21;18.01;17.04;13.79;0.75
67098;SPS30;54288;53.046;5.668;2024-03-23T05:34:17;3.96;3.84;3.21;2.30;18.53;18.51;18.34;17.52;14.39;0.71
67098;SPS30;54288;53.046;5.668;2024-03-23T05:36:49;3.88;3.77;3.22;2.40;19.30;19.28;19.14;18.40;15.29;0.68
67098;SPS30;54288;53.046;5.668;2024-03-23T05:39:17;3.70;3.60;3.10;2.34;18.78;18.76;18.62;17.95;14.96;0.67
67098;SPS30;54288;53.046;5.668;2024-03-23T05:41:55;3.22;3.14;2.73;2.10;16.83;16.81;16.70;16.14;13.52;0.65
67098;SPS30;54288;53.046;5.668;2024-03-23T05:44:46;3.07;3.00;2.65;2.10;16.86;16.84;16.75;16.27;13.73;0.64
67098;SPS30;54288;53.046;5.668;2024-03-23T05:47:15;2.99;2.93;2.59;2.05;16.42;16.41;16.32;15.85;13.38;0.64
67098;SPS30;54288;53.046;5.668;2024-03-23T05:49:45;3.01;2.94;2.60;2.06;16.50;16.48;16.39;15.92;13.43;0.64
67098;SPS30;54288;53.046;5.668;2024-03-23T05:52:19;2.92;2.85;2.49;1.93;15.52;15.51;15.41;14.92;12.53;0.66
67098;SPS30;54288;53.046;5.668;2024-03-23T05:54:53;2.97;2.90;2.51;1.92;15.38;15.37;15.26;14.74;12.33;0.67
67098;SPS30;54288;53.046;5.668;2024-03-23T05:57:19;3.32;3.21;2.68;1.92;15.44;15.42;15.28;14.59;11.97;0.70
67098;SPS30;54288;53.046;5.668;2024-03-23T05:59:45;3.47;3.35;2.74;1.87;15.08;15.06;14.90;14.09;11.41;0.73
67098;SPS30;54288;53.046;5.668;2024-03-23T06:02:15;3.75;3.62;2.96;2.02;16.25;16.22;16.05;15.18;12.28;0.74
67098;SPS30;54288;53.046;5.668;2024-03-23T06:15:32;2.38;2.31;1.93;1.39;11.15;11.14;11.04;10.54;8.66;0.71
67098;SPS30;54288;53.046;5.668;2024-03-23T06:18:03;2.35;2.28;1.94;1.44;11.54;11.52;11.43;10.98;9.10;0.69
67098;SPS30;54288;53.046;5.668;2024-03-23T06:20:30;2.18;2.13;1.83;1.39;11.18;11.17;11.09;10.70;8.93;0.68
67098;SPS30;54288;53.046;5.668;2024-03-23T06:22:57;2.44;2.38;2.03;1.51;12.15;12.14;12.05;11.58;9.62;0.69
67098;SPS30;54288;53.046;5.668;2024-03-23T06:25:23;2.62;2.55;2.18;1.64;13.17;13.15;13.05;12.57;10.46;0.70
67098;SPS30;54288;53.046;5.668;2024-03-23T06:27:49;2.43;2.37;2.05;1.56;12.51;12.50;12.41;11.98;10.01;0.69
67098;SPS30;54288;53.046;5.668;2024-03-23T06:30:15;2.18;2.13;1.87;1.47;11.80;11.79;11.72;11.37;9.58;0.66
67098;SPS30;54288;53.046;5.668;2024-03-23T06:32:41;2.25;2.19;1.93;1.52;12.19;12.18;12.11;11.75;9.90;0.66
67098;SPS30;54288;53.046;5.668;2024-03-23T06:35:07;2.39;2.34;2.05;1.60;12.84;12.83;12.75;12.36;10.40;0.66
67098;SPS30;54288;53.046;5.668;2024-03-23T06:37:38;2.37;2.32;2.02;1.57;12.63;12.62;12.54;12.14;10.20;0.66
67098;SPS30;54288;53.046;5.668;2024-03-23T06:40:06;2.69;2.62;2.24;1.68;13.46;13.44;13.34;12.84;10.68;0.68
67098;SPS30;54288;53.046;5.668;2024-03-23T06:42:35;2.59;2.51;2.13;1.57;12.61;12.59;12.49;11.98;9.92;0.68
67098;SPS30;54288;53.046;5.668;2024-03-23T06:45:02;2.67;2.60;2.23;1.67;13.43;13.41;13.31;12.82;10.67;0.67
67098;SPS30;54288;53.046;5.668;2024-03-23T06:47:32;2.97;2.89;2.49;1.89;15.20;15.18;15.08;14.55;12.15;0.67
67098;SPS30;54288;53.046;5.668;2024-03-23T07:11:33;3.02;2.96;2.65;2.16;17.28;17.27;17.18;16.76;14.24;0.61
67098;SPS30;54288;53.046;5.668;2024-03-23T07:22:37;3.10;3.03;2.68;2.13;17.07;17.05;16.96;16.48;13.92;0.66
67098;SPS30;54288;53.046;5.668;2024-03-23T09:30:53;2.75;2.65;2.11;1.38;11.09;11.07;10.93;10.24;8.15;0.77
67098;SPS30;54288;53.046;5.668;2024-03-23T11:28:19;2.14;2.07;1.68;1.13;9.12;9.10;9.00;8.49;6.84;0.76
67098;SPS30;54288;53.046;5.668;2024-03-23T11:33:33;2.36;2.28;1.90;1.36;10.93;10.91;10.81;10.31;8.45;0.71
67098;SPS30;54288;53.046;5.668;2024-03-23T11:38:42;2.85;2.75;2.25;1.55;12.51;12.49;12.36;11.71;9.50;0.74
67098;SPS30;54288;53.046;5.668;2024-03-23T11:41:26;3.77;3.64;3.00;2.08;16.75;16.73;16.56;15.71;12.78;0.74
67098;SPS30;54288;53.046;5.668;2024-03-23T12:37:28;3.42;3.31;2.76;1.97;15.87;15.85;15.71;14.99;12.29;0.73
67098;SPS30;54288;53.046;5.668;2024-03-23T12:39:54;3.48;3.37;2.81;2.01;16.13;16.11;15.96;15.23;12.48;0.72
67098;SPS30;54288;53.046;5.668;2024-03-23T12:42:21;3.44;3.32;2.70;1.84;14.81;14.79;14.63;13.82;11.17;0.75
67098;SPS30;54288;53.046;5.668;2024-03-23T12:46:02;5.30;5.08;4.02;2.56;20.67;20.63;20.36;18.98;14.98;0.79
67098;SPS30;54288;53.046;5.668;2024-03-23T12:48:28;4.71;4.52;3.57;2.27;18.29;18.25;18.01;16.78;13.23;0.80
67098;SPS30;54288;53.046;5.668;2024-03-23T12:50:58;5.26;5.02;3.85;2.27;18.38;18.34;18.04;16.53;12.66;0.85
67098;SPS30;54288;53.046;5.668;2024-03-23T13:36:48;4.15;3.97;3.08;1.86;15.07;15.03;14.80;13.65;10.57;0.84
67098;SPS30;54288;53.046;5.668;2024-03-23T13:58:27;3.97;3.79;2.90;1.70;13.73;13.70;13.47;12.32;9.41;0.89
67098;SPS30;54288;53.046;5.668;2024-03-23T16:22:27;3.47;3.37;2.85;2.10;16.88;16.86;16.72;16.04;13.27;0.73
67098;SPS30;54288;53.046;5.668;2024-03-23T16:31:08;3.74;3.62;3.03;2.18;17.51;17.48;17.33;16.55;13.60;0.76
67098;SPS30;54288;53.046;5.668;2024-03-23T16:52:35;2.60;2.53;2.20;1.70;13.64;13.63;13.54;13.10;10.98;0.69
67098;SPS30;54288;53.046;5.668;2024-03-23T17:00:28;2.82;2.73;2.29;1.65;13.28;13.26;13.14;12.56;10.33;0.73
67098;SPS30;54288;53.046;5.668;2024-03-23T17:43:56;3.36;3.26;2.75;2.01;16.13;16.11;15.98;15.30;12.63;0.76
67098;SPS30;54288;53.046;5.668;2024-03-23T17:46:22;2.82;2.74;2.34;1.74;13.99;13.98;13.87;13.34;11.08;0.75
67098;SPS30;54288;53.046;5.668;2024-03-23T17:51:37;3.01;2.93;2.55;1.97;15.83;15.81;15.71;15.20;12.75;0.70
67098;SPS30;54288;53.046;5.668;2024-03-23T17:54:03;3.49;3.41;3.01;2.38;19.08;19.07;18.96;18.41;15.53;0.69
67098;SPS30;54288;53.046;5.668;2024-03-23T17:56:32;3.20;3.13;2.75;2.16;17.36;17.35;17.25;16.74;14.10;0.69
67098;SPS30;54288;53.046;5.668;2024-03-23T18:09:53;10.51;10.45;10.17;9.29;74.22;74.20;74.10;73.57;64.15;0.62
67098;SPS30;54288;53.046;5.668;2024-03-23T18:38:48;2.37;2.36;2.28;2.07;16.56;16.55;16.53;16.39;14.27;0.60
67098;SPS30;54288;53.046;5.668;2024-03-23T18:46:51;2.06;2.04;1.92;1.67;13.38;13.38;13.34;13.16;11.36;0.62
67098;SPS30;54288;53.046;5.668;2024-03-23T18:52:17;2.19;2.17;2.03;1.77;14.15;14.14;14.10;13.90;11.99;0.63
67098;SPS30;54288;53.046;5.668;2024-03-23T18:54:43;6.98;6.90;6.50;5.68;45.44;45.42;45.30;44.69;38.61;0.63
67098;SPS30;54288;53.046;5.668;2024-03-23T19:00:12;2.15;2.13;2.06;1.87;14.94;14.94;14.91;14.79;12.88;0.61
67098;SPS30;54288;53.046;5.668;2024-03-23T19:10:50;6.28;6.23;5.99;5.39;43.07;43.05;42.98;42.58;37.01;0.62
67098;SPS30;54288;53.046;5.668;2024-03-23T19:13:20;11.17;11.09;10.68;9.61;76.85;76.82;76.69;75.99;66.06;0.64
67098;SPS30;54288;53.046;5.668;2024-03-23T19:15:46;12.58;12.45;11.76;10.32;82.56;82.52;82.32;81.27;70.27;0.65
67098;SPS30;54288;53.046;5.668;2024-03-23T19:18:32;9.26;9.19;8.85;7.98;63.77;63.75;63.64;63.06;54.83;0.63
67098;SPS30;54288;53.046;5.668;2024-03-23T19:40:36;2.72;2.71;2.68;2.49;19.90;19.90;19.88;19.79;17.32;0.57
67098;SPS30;54288;53.046;5.668;2024-03-23T19:48:45;3.01;2.99;2.91;2.67;21.31;21.30;21.28;21.13;18.43;0.59
67098;SPS30;54288;53.046;5.668;2024-03-23T23:24:38;2.35;2.32;2.20;1.94;15.55;15.54;15.51;15.32;13.26;0.61
67098;SPS30;54288;53.046;5.668;2024-03-23T23:27:06;2.22;2.20;2.10;1.88;15.04;15.04;15.01;14.86;12.90;0.60
67098;SPS30;54288;53.046;5.668;2024-03-23T23:29:39;1.83;1.82;1.78;1.62;12.96;12.96;12.94;12.85;11.21;0.59
67098;SPS30;54288;53.046;5.668;2024-03-23T23:32:19;1.95;1.94;1.89;1.73;13.85;13.85;13.83;13.74;11.99;0.57
67098;SPS30;54288;53.046;5.668;2024-03-23T23:34:46;2.17;2.17;2.14;1.99;15.89;15.88;15.87;15.79;13.82;0.56
67098;SPS30;54288;53.046;5.668;2024-03-23T23:37:12;2.28;2.27;2.24;2.08;16.65;16.65;16.63;16.55;14.49;0.56
67098;SPS30;54288;53.046;5.668;2024-03-23T23:42:43;2.76;2.75;2.71;2.52;20.13;20.13;20.11;20.01;17.51;0.57
67098;SPS30;54288;53.046;5.668;2024-03-23T23:47:53;2.73;2.72;2.69;2.51;20.08;20.07;20.06;19.98;17.50;0.56
67098;SPS30;54288;53.046;5.668;2024-03-23T23:50:19;3.17;3.16;3.07;2.80;22.41;22.41;22.38;22.22;19.37;0.57
67098;SPS30;54288;53.046;5.668;2024-03-23T23:52:46;3.07;3.06;2.98;2.74;21.89;21.88;21.85;21.71;18.95;0.56
67098;SPS30;54288;53.046;5.668;2024-03-23T23:55:12;3.10;3.10;3.08;2.88;23.02;23.02;23.00;22.92;20.09;0.54
67098;SPS30;54288;53.046;5.668;2024-03-23T23:57:38;3.26;3.25;3.19;2.94;23.50;23.50;23.47;23.34;20.39;0.56
